X  Chiuso Dati meteorologici dell'aviazione (METAR)     LIPX Verona-Villafranca Valerio Catullo Airport
Temperatura
12°C Temperatura
7°C Punto di rugiada
72% Umidità



Vento
10 KM/O
6 MPH
3 M/S
5 KTS



330°
NNO
Condizioni attuali

Nuvole per lo più sparse Nuvole per lo più sparse
Pressione 1020.92 (hPa) - 30.15 (inHg)
Visibilità 6.2 (miglio) - 10 (km)
Aeroporto
Codice-Aeroporto LIPX

Posizione: Verona-Villafranca Valerio Catullo Airport
Distanza: 0 (km)

Metar:
LIPX 220420Z 33005KT 9999 SCT070 12/07 Q1021

Ore: 22-09-2022 06:20 CEST